createdAt,value
2022-12-01T00:01:12.693Z,5.56
2022-12-01T00:03:41.812Z,5.45
2022-12-01T00:06:16.872Z,5.47
2022-12-01T00:09:03.618Z,5.51
2022-12-01T00:11:30.085Z,5.52
2022-12-01T00:13:56.495Z,5.59
2022-12-01T00:16:22.987Z,5.48
2022-12-01T00:18:51.682Z,5.48
2022-12-01T00:21:19.954Z,5.49
2022-12-01T00:23:47.840Z,5.60
2022-12-01T00:26:15.599Z,5.53
2022-12-01T00:28:42.456Z,5.45
2022-12-01T00:31:12.718Z,5.44
2022-12-01T00:33:40.057Z,5.41
2022-12-01T00:36:07.443Z,5.44
2022-12-01T00:38:34.731Z,5.41
2022-12-01T00:41:02.765Z,5.42
2022-12-01T00:43:29.513Z,5.41
2022-12-01T00:45:57.901Z,5.42
2022-12-01T00:48:24.434Z,5.40
2022-12-01T00:50:54.984Z,5.44
2022-12-01T00:53:21.779Z,5.34
2022-12-01T00:55:48.347Z,5.40
2022-12-01T00:58:14.928Z,5.49
2022-12-01T01:00:42.993Z,5.42
2022-12-01T01:03:10.618Z,5.43
2022-12-01T01:05:42.823Z,5.39
2022-12-01T01:08:11.848Z,5.50
2022-12-01T01:10:43.650Z,5.53
2022-12-01T01:13:11.439Z,5.60
2022-12-01T01:15:38.446Z,5.51
2022-12-01T01:18:05.730Z,5.41
2022-12-01T01:20:32.998Z,5.43
2022-12-01T01:22:59.448Z,5.57
2022-12-01T01:25:26.144Z,5.39
2022-12-01T01:27:52.630Z,5.48
2022-12-01T01:30:19.273Z,5.54
2022-12-01T01:32:45.713Z,5.43
2022-12-01T01:35:12.243Z,5.36
2022-12-01T01:37:38.654Z,5.33
2022-12-01T01:40:05.928Z,5.42
2022-12-01T01:42:32.329Z,5.45
2022-12-01T01:44:59.263Z,5.60
2022-12-01T01:47:30.744Z,5.50
2022-12-01T01:50:05.223Z,5.46
2022-12-01T01:52:33.524Z,5.52
2022-12-01T01:55:00.733Z,5.55
2022-12-01T01:57:30.743Z,5.49
2022-12-01T02:00:23.484Z,5.41
2022-12-01T02:02:50.555Z,5.41
2022-12-01T02:05:26.787Z,5.41
2022-12-01T02:07:56.592Z,5.40
2022-12-01T02:10:41.767Z,5.36
2022-12-01T02:13:55.718Z,5.42
2022-12-01T02:16:41.143Z,5.36
2022-12-01T02:19:32.368Z,5.38
2022-12-01T02:22:30.246Z,5.35
2022-12-01T02:25:19.390Z,5.37
2022-12-01T02:28:30.336Z,5.52
2022-12-01T02:31:02.987Z,5.36
2022-12-01T02:33:49.502Z,5.29
2022-12-01T02:36:35.002Z,5.41
2022-12-01T02:39:10.813Z,5.41
2022-12-01T02:41:45.304Z,5.42
2022-12-01T02:44:20.173Z,5.45
2022-12-01T02:47:00.642Z,5.34
2022-12-01T02:49:33.541Z,5.40
2022-12-01T02:52:00.816Z,5.45
2022-12-01T02:54:31.095Z,5.31
2022-12-01T02:56:57.511Z,5.32
2022-12-01T02:59:23.961Z,5.41
2022-12-01T03:02:03.979Z,5.41
2022-12-01T03:04:36.012Z,5.41
2022-12-01T03:07:05.508Z,5.43
2022-12-01T03:09:37.991Z,5.40
2022-12-01T03:12:23.671Z,5.46
2022-12-01T03:15:04.508Z,5.48
2022-12-01T03:17:43.522Z,5.55
2022-12-01T03:20:19.498Z,5.39
2022-12-01T03:22:55.955Z,5.36
2022-12-01T03:25:26.313Z,5.36
2022-12-01T03:28:20.346Z,5.35
2022-12-01T03:30:45.260Z,5.32
2022-12-01T03:33:21.012Z,5.41
2022-12-01T03:36:03.203Z,5.41
2022-12-01T03:38:31.872Z,5.41
2022-12-01T03:41:03.872Z,5.40
2022-12-01T03:43:36.760Z,5.41
2022-12-01T03:46:10.743Z,5.40
2022-12-01T03:48:39.112Z,5.38
2022-12-01T03:51:14.605Z,5.39
2022-12-01T03:53:55.141Z,5.33
2022-12-01T03:56:26.147Z,5.43
2022-12-01T03:58:56.737Z,5.32
2022-12-01T04:01:23.521Z,5.26
2022-12-01T04:03:49.939Z,5.36
2022-12-01T04:06:16.364Z,5.26
2022-12-01T04:08:42.863Z,5.26
2022-12-01T04:11:32.447Z,5.44
2022-12-01T04:13:59.334Z,5.33
2022-12-01T04:16:25.785Z,5.34
2022-12-01T04:18:52.221Z,5.36
2022-12-01T04:21:18.649Z,5.29
2022-12-01T04:24:00.239Z,5.31
2022-12-01T04:26:32.806Z,5.34
2022-12-01T04:29:00.679Z,5.38
2022-12-01T04:31:27.516Z,5.34
2022-12-01T04:33:55.889Z,5.28
2022-12-01T04:36:23.290Z,5.22
2022-12-01T04:38:49.880Z,5.32
2022-12-01T04:41:16.372Z,5.27
2022-12-01T04:43:42.858Z,5.29
2022-12-01T04:46:09.611Z,5.32
2022-12-01T04:48:37.302Z,5.31
2022-12-01T04:51:05.519Z,5.32
2022-12-01T04:53:32.318Z,5.36
2022-12-01T04:56:02.318Z,5.36
2022-12-01T04:58:30.051Z,5.42
2022-12-01T05:01:05.071Z,5.35
2022-12-01T05:03:31.564Z,5.36
2022-12-01T05:06:06.139Z,5.35
2022-12-01T05:08:33.000Z,5.35
2022-12-01T05:10:59.627Z,5.34
2022-12-01T05:13:26.387Z,5.36
2022-12-01T05:15:53.244Z,5.36
2022-12-01T05:18:19.736Z,5.34
2022-12-01T05:20:58.438Z,5.36
2022-12-01T05:23:32.953Z,5.44
2022-12-01T05:25:59.798Z,5.41
2022-12-01T05:28:26.844Z,5.39
2022-12-01T05:30:54.432Z,5.31
2022-12-01T05:33:22.215Z,5.30
2022-12-01T05:35:49.922Z,5.34
2022-12-01T05:38:16.430Z,5.35
2022-12-01T05:40:43.135Z,5.42
2022-12-01T05:43:09.513Z,5.41
2022-12-01T05:45:35.972Z,5.39
2022-12-01T05:48:02.828Z,5.31
2022-12-01T05:50:30.395Z,5.36
2022-12-01T05:52:56.929Z,5.50
2022-12-01T05:55:23.687Z,5.50
2022-12-01T05:57:50.197Z,5.49
2022-12-01T06:00:17.171Z,5.49
2022-12-01T06:02:43.734Z,5.43
2022-12-01T06:05:10.567Z,5.40
2022-12-01T06:07:40.021Z,5.32
2022-12-01T06:10:09.159Z,5.41
2022-12-01T06:12:36.244Z,5.37
2022-12-01T06:15:06.671Z,5.40
2022-12-01T06:17:37.076Z,5.36
2022-12-01T06:20:07.219Z,5.36
2022-12-01T06:22:33.649Z,5.47
2022-12-01T06:25:00.107Z,5.30
2022-12-01T06:27:26.515Z,5.41
2022-12-01T06:29:53.304Z,5.44
2022-12-01T06:32:19.991Z,5.43
2022-12-01T06:34:46.434Z,5.40
2022-12-01T06:37:15.516Z,5.38
2022-12-01T06:39:42.995Z,5.39
2022-12-01T06:42:09.510Z,5.39
2022-12-01T06:44:35.937Z,5.41
2022-12-01T06:47:02.329Z,5.45
2022-12-01T06:49:28.730Z,5.42
2022-12-01T06:51:55.204Z,5.44
2022-12-01T06:54:21.767Z,5.45
2022-12-01T06:56:48.199Z,5.48
2022-12-01T06:59:14.830Z,5.37
2022-12-01T07:01:41.743Z,5.44
2022-12-01T07:04:08.255Z,5.44
2022-12-01T07:06:34.673Z,5.53
2022-12-01T07:09:01.059Z,5.58
2022-12-01T07:11:27.481Z,5.50
2022-12-01T07:13:56.951Z,5.46
2022-12-01T07:16:23.518Z,5.47
2022-12-01T07:18:50.128Z,5.50
2022-12-01T07:21:17.066Z,5.41
2022-12-01T07:23:43.485Z,5.49
2022-12-01T07:26:12.905Z,5.44
2022-12-01T07:28:39.336Z,5.47
2022-12-01T07:31:11.879Z,5.48
2022-12-01T07:33:38.758Z,5.51
2022-12-01T07:36:06.044Z,5.46
2022-12-01T07:38:34.543Z,5.44
2022-12-01T07:41:08.258Z,5.46
2022-12-01T07:43:35.381Z,5.41
2022-12-01T07:46:08.943Z,5.41
2022-12-01T07:48:39.957Z,5.44
2022-12-01T07:51:11.669Z,5.44
2022-12-01T07:53:38.292Z,5.46
2022-12-01T07:56:08.595Z,5.36
2022-12-01T07:58:35.945Z,5.46
2022-12-01T08:01:14.727Z,5.48
2022-12-01T08:03:42.430Z,5.54
2022-12-01T08:06:09.744Z,5.48
2022-12-01T08:08:38.354Z,5.46
2022-12-01T08:11:08.307Z,5.57
2022-12-01T08:13:34.792Z,5.56
2022-12-01T08:16:06.140Z,5.60
2022-12-01T08:18:36.563Z,5.57
2022-12-01T08:21:03.762Z,5.52
2022-12-01T08:23:30.585Z,5.59
2022-12-01T08:26:02.099Z,5.49
2022-12-01T08:28:28.680Z,5.61
2022-12-01T08:30:55.726Z,5.66
2022-12-01T08:33:22.353Z,5.62
2022-12-01T08:35:48.777Z,5.64
2022-12-01T08:38:15.834Z,5.66
2022-12-01T08:40:42.256Z,5.70
2022-12-01T08:43:12.331Z,5.73
2022-12-01T08:45:45.171Z,5.65
2022-12-01T08:48:11.568Z,5.75
2022-12-01T08:50:37.966Z,5.69
2022-12-01T08:53:04.512Z,5.71
2022-12-01T08:55:30.898Z,5.77
2022-12-01T08:57:57.470Z,5.77
2022-12-01T09:00:23.880Z,5.75
2022-12-01T09:02:50.339Z,5.70
2022-12-01T09:05:16.907Z,5.73
2022-12-01T09:07:45.555Z,5.88
2022-12-01T09:10:12.092Z,5.88
2022-12-01T09:12:38.476Z,5.86
2022-12-01T09:15:05.384Z,5.87
2022-12-01T09:17:31.766Z,6.02
2022-12-01T09:19:58.169Z,6.05
2022-12-01T09:22:24.565Z,5.88
2022-12-01T09:24:50.989Z,5.85
2022-12-01T09:27:17.386Z,5.97
2022-12-01T09:29:43.812Z,5.96
2022-12-01T09:32:10.245Z,6.00
2022-12-01T09:34:36.644Z,5.83
2022-12-01T09:37:03.281Z,5.82
2022-12-01T09:39:29.861Z,5.92
2022-12-01T09:42:08.392Z,5.85
2022-12-01T09:44:45.443Z,5.93
2022-12-01T09:47:21.599Z,5.96
2022-12-01T09:50:03.104Z,5.94
2022-12-01T09:52:44.754Z,6.01
2022-12-01T09:55:19.483Z,6.01
2022-12-01T09:57:54.185Z,5.98
2022-12-01T10:00:23.776Z,6.01
2022-12-01T10:02:59.970Z,6.22
2022-12-01T10:05:33.260Z,6.08
2022-12-01T10:08:04.776Z,6.20
2022-12-01T10:10:36.373Z,6.15
2022-12-01T10:13:02.922Z,6.12
2022-12-01T10:15:39.375Z,6.30
2022-12-01T10:18:45.737Z,6.32
2022-12-01T10:21:41.586Z,6.29
2022-12-01T10:24:17.648Z,6.36
2022-12-01T10:27:08.756Z,6.29
2022-12-01T10:29:47.751Z,6.18
2022-12-01T10:32:38.567Z,6.23
2022-12-01T10:35:05.142Z,6.29
2022-12-01T10:37:31.800Z,6.35
2022-12-01T10:39:58.651Z,6.39
2022-12-01T10:42:34.193Z,6.40
2022-12-01T10:45:03.354Z,6.31
2022-12-01T10:47:31.416Z,6.42
2022-12-01T10:49:58.523Z,6.48
2022-12-01T10:52:41.695Z,6.50
2022-12-01T10:55:23.225Z,6.47
2022-12-01T10:57:50.443Z,6.48
2022-12-01T11:03:22.037Z,6.48
2022-12-01T11:05:53.195Z,6.55
2022-12-01T11:08:30.176Z,6.62
2022-12-01T11:10:56.836Z,6.55
2022-12-01T11:13:32.740Z,6.34
2022-12-01T11:16:02.481Z,6.55
2022-12-01T11:18:33.611Z,6.39
2022-12-01T11:21:06.187Z,6.53
2022-12-01T11:23:35.920Z,6.53
2022-12-01T11:26:09.253Z,6.69
2022-12-01T11:28:40.376Z,6.43
2022-12-01T11:31:09.931Z,6.47
2022-12-01T11:33:51.277Z,6.45
2022-12-01T11:36:44.031Z,6.53
2022-12-01T11:39:23.877Z,6.37
2022-12-01T11:41:55.636Z,6.55
2022-12-01T11:44:43.586Z,6.53
2022-12-01T11:47:23.305Z,6.65
2022-12-01T11:50:02.394Z,6.49
2022-12-01T11:52:33.057Z,6.56
2022-12-01T11:55:20.894Z,6.68
2022-12-01T11:57:52.187Z,6.68
2022-12-01T12:00:28.016Z,6.78
2022-12-01T12:03:14.115Z,6.68
2022-12-01T12:06:32.369Z,6.66
2022-12-01T12:09:20.385Z,6.57
2022-12-01T12:11:57.625Z,6.46
2022-12-01T12:14:47.434Z,6.38
2022-12-01T12:17:58.493Z,6.55
2022-12-01T12:20:40.958Z,6.57
2022-12-01T12:23:27.455Z,6.49
2022-12-01T12:25:59.615Z,6.54
2022-12-01T12:28:37.717Z,6.57
2022-12-01T12:31:06.926Z,6.58
2022-12-01T12:34:00.559Z,6.55
2022-12-01T12:36:50.859Z,6.60
2022-12-01T12:39:42.432Z,6.57
2022-12-01T12:42:33.192Z,6.47
2022-12-01T12:45:16.126Z,6.45
2022-12-01T12:48:13.474Z,6.59
2022-12-01T12:51:15.772Z,6.53
2022-12-01T12:53:51.345Z,6.37
2022-12-01T12:56:21.950Z,6.33
2022-12-01T12:59:14.674Z,6.17
2022-12-01T13:01:47.028Z,6.17
2022-12-01T13:04:25.160Z,6.33
2022-12-01T13:07:00.517Z,6.28
2022-12-01T13:09:35.530Z,6.26
2022-12-01T13:12:09.090Z,6.33
2022-12-01T13:14:40.941Z,6.29
2022-12-01T13:17:20.197Z,6.21
2022-12-01T13:19:48.211Z,6.19
2022-12-01T13:22:17.909Z,6.21
2022-12-01T13:24:44.715Z,6.22
2022-12-01T13:27:11.042Z,6.18
2022-12-01T13:29:47.503Z,6.25
2022-12-01T13:32:31.587Z,6.47
2022-12-01T13:34:59.768Z,6.26
2022-12-01T13:37:29.631Z,6.16
2022-12-01T13:40:08.034Z,6.17
2022-12-01T13:42:35.265Z,6.20
2022-12-01T13:45:09.929Z,6.19
2022-12-01T13:47:55.815Z,6.17
2022-12-01T13:50:43.094Z,6.09
2022-12-01T13:53:20.293Z,6.21
2022-12-01T13:56:00.287Z,6.10
2022-12-01T13:58:32.929Z,6.08
2022-12-01T14:01:18.237Z,6.09
2022-12-01T14:04:03.623Z,6.01
2022-12-01T14:06:35.870Z,5.99
2022-12-01T14:09:14.626Z,5.81
2022-12-01T14:11:42.548Z,5.91
2022-12-01T14:14:08.884Z,5.98
2022-12-01T14:16:47.932Z,6.07
2022-12-01T14:19:39.324Z,5.92
2022-12-01T14:22:07.524Z,5.89
2022-12-01T14:24:41.428Z,5.82
2022-12-01T14:27:11.801Z,5.88
2022-12-01T14:29:43.038Z,5.77
2022-12-01T14:32:09.364Z,5.83
2022-12-01T14:34:39.431Z,5.71
2022-12-01T14:37:16.052Z,5.89
2022-12-01T14:40:13.016Z,5.80
2022-12-01T14:43:05.800Z,5.68
2022-12-01T14:45:47.262Z,5.63
2022-12-01T14:48:18.620Z,5.62
2022-12-01T14:51:07.897Z,5.56
2022-12-01T14:53:38.928Z,5.64
2022-12-01T14:56:13.159Z,5.60
2022-12-01T14:58:51.206Z,5.56
2022-12-01T15:01:17.961Z,5.48
2022-12-01T15:03:50.618Z,5.60
2022-12-01T15:06:25.327Z,5.48
2022-12-01T15:09:33.675Z,5.52
2022-12-01T15:12:03.887Z,5.46
2022-12-01T15:14:48.346Z,5.53
2022-12-01T15:17:34.593Z,5.45
2022-12-01T15:20:01.335Z,5.41
2022-12-01T15:22:31.477Z,5.42
2022-12-01T15:25:13.120Z,5.42
2022-12-01T15:27:39.692Z,5.36
2022-12-01T15:30:07.734Z,5.32
2022-12-01T15:32:38.012Z,5.30
2022-12-01T15:35:05.628Z,5.38
2022-12-01T15:37:42.571Z,5.32
2022-12-01T15:43:06.014Z,5.37
2022-12-01T15:45:45.898Z,5.34
2022-12-01T15:48:25.912Z,5.28
2022-12-01T15:51:12.216Z,5.31
2022-12-01T15:53:45.365Z,5.25
2022-12-01T15:56:12.432Z,5.15
2022-12-01T15:58:47.547Z,5.18
2022-12-01T16:01:19.619Z,5.21
2022-12-01T16:03:50.083Z,5.21
2022-12-01T16:06:17.837Z,5.14
2022-12-01T16:08:57.016Z,5.16
2022-12-01T16:11:23.842Z,5.06
2022-12-01T16:14:01.155Z,5.11
2022-12-01T16:16:34.499Z,5.00
2022-12-01T16:19:02.401Z,4.96
2022-12-01T16:21:32.950Z,5.02
2022-12-01T16:24:01.773Z,4.81
2022-12-01T16:26:29.444Z,4.85
2022-12-01T16:28:56.947Z,4.93
2022-12-01T16:31:26.081Z,4.88
2022-12-01T16:34:13.856Z,4.80
2022-12-01T16:36:45.143Z,4.84
2022-12-01T16:39:13.989Z,4.75
2022-12-01T16:41:44.590Z,4.89
2022-12-01T16:44:28.091Z,4.73
2022-12-01T16:46:55.234Z,4.80
2022-12-01T16:49:22.169Z,4.78
2022-12-01T16:51:57.145Z,4.77
2022-12-01T16:54:24.086Z,4.86
2022-12-01T16:56:50.973Z,4.90
2022-12-01T16:59:17.433Z,4.83
2022-12-01T17:01:43.916Z,4.82
2022-12-01T17:04:10.352Z,4.87
2022-12-01T17:06:38.390Z,4.92
2022-12-01T17:09:05.737Z,4.95
2022-12-01T17:11:32.596Z,4.95
2022-12-01T17:13:59.158Z,5.01
2022-12-01T17:16:25.642Z,5.01
2022-12-01T17:18:52.179Z,4.94
2022-12-01T17:21:18.683Z,5.02
2022-12-01T17:23:45.093Z,4.95
2022-12-01T17:26:14.683Z,4.89
2022-12-01T17:28:41.551Z,4.86
2022-12-01T17:31:08.597Z,4.99
2022-12-01T17:33:36.014Z,4.89
2022-12-01T17:36:05.283Z,4.93
2022-12-01T17:38:34.993Z,4.99
2022-12-01T17:41:04.203Z,4.99
2022-12-01T17:43:30.622Z,4.99
2022-12-01T17:45:57.122Z,4.96
2022-12-01T17:48:23.535Z,5.02
2022-12-01T17:50:50.123Z,4.98
2022-12-01T17:53:16.573Z,4.90
2022-12-01T17:55:42.959Z,4.85
2022-12-01T17:58:09.350Z,4.94
2022-12-01T18:00:35.818Z,4.86
2022-12-01T18:03:02.305Z,4.87
2022-12-01T18:05:29.491Z,4.74
2022-12-01T18:07:56.007Z,4.70
2022-12-01T18:10:22.440Z,4.80
2022-12-01T18:12:48.891Z,4.86
2022-12-01T18:15:17.176Z,4.81
2022-12-01T18:17:43.594Z,4.85
2022-12-01T18:20:10.301Z,4.85
2022-12-01T18:22:36.722Z,4.79
2022-12-01T18:25:03.622Z,4.74
2022-12-01T18:27:30.037Z,4.78
2022-12-01T18:29:56.529Z,4.78
2022-12-01T18:32:22.913Z,4.73
2022-12-01T18:34:49.593Z,4.62
2022-12-01T18:37:16.271Z,4.64
2022-12-01T18:39:42.689Z,4.74
2022-12-01T18:42:09.079Z,4.62
2022-12-01T18:44:35.481Z,4.64
2022-12-01T18:47:03.711Z,4.66
2022-12-01T18:49:30.231Z,4.80
2022-12-01T18:51:57.297Z,4.74
2022-12-01T18:54:23.686Z,4.60
2022-12-01T18:56:53.271Z,4.61
2022-12-01T18:59:19.748Z,4.64
2022-12-01T19:01:48.555Z,4.67
2022-12-01T19:04:16.494Z,4.60
2022-12-01T19:06:44.702Z,4.65
2022-12-01T19:09:12.963Z,4.58
2022-12-01T19:11:40.772Z,4.66
2022-12-01T19:14:10.129Z,4.60
2022-12-01T19:16:36.551Z,4.57
2022-12-01T19:19:03.196Z,4.56
2022-12-01T19:21:29.596Z,4.54
2022-12-01T19:23:56.250Z,4.49
2022-12-01T19:26:23.133Z,4.43
2022-12-01T19:28:49.832Z,4.38
2022-12-01T19:31:23.462Z,4.44
2022-12-01T19:33:50.579Z,4.48
2022-12-01T19:36:19.392Z,4.40
2022-12-01T19:38:45.951Z,4.49
2022-12-01T19:41:13.859Z,4.52
2022-12-01T19:43:40.514Z,4.45
2022-12-01T19:46:08.650Z,4.44
2022-12-01T19:48:35.416Z,4.41
2022-12-01T19:51:02.115Z,4.47
2022-12-01T19:53:33.258Z,4.35
2022-12-01T19:56:04.867Z,4.37
2022-12-01T19:58:34.613Z,4.39
2022-12-01T20:01:10.062Z,4.33
2022-12-01T20:03:38.087Z,4.29
2022-12-01T20:06:10.061Z,4.33
2022-12-01T20:08:36.806Z,4.26
2022-12-01T20:11:04.526Z,4.26
2022-12-01T20:13:32.931Z,4.19
2022-12-01T20:16:14.308Z,4.19
2022-12-01T20:18:42.037Z,4.11
2022-12-01T20:21:16.363Z,4.04
2022-12-01T20:23:44.516Z,3.99
2022-12-01T20:26:11.696Z,4.00
2022-12-01T20:28:39.704Z,3.93
2022-12-01T20:31:24.343Z,3.92
2022-12-01T20:33:52.514Z,3.86
2022-12-01T20:36:19.227Z,3.85
2022-12-01T20:38:45.739Z,3.80
2022-12-01T20:41:12.835Z,3.78
2022-12-01T20:43:39.944Z,3.73
2022-12-01T20:46:07.164Z,3.77
2022-12-01T20:48:34.009Z,3.65
2022-12-01T20:51:01.931Z,3.64
2022-12-01T20:53:28.382Z,3.57
2022-12-01T20:55:55.552Z,3.61
2022-12-01T20:58:22.133Z,3.62
2022-12-01T21:00:48.975Z,3.64
2022-12-01T21:03:15.388Z,3.56
2022-12-01T21:05:43.340Z,3.52
2022-12-01T21:08:12.129Z,3.52
2022-12-01T21:10:40.613Z,3.52
2022-12-01T21:13:39.068Z,3.47
2022-12-01T21:16:14.045Z,3.43
2022-12-01T21:18:52.666Z,3.52
2022-12-01T21:21:30.703Z,3.42
2022-12-01T21:24:20.600Z,3.52
2022-12-01T21:26:50.134Z,3.41
2022-12-01T21:29:21.247Z,3.43
2022-12-01T21:31:50.607Z,3.39
2022-12-01T21:34:25.132Z,3.36
2022-12-01T21:36:54.420Z,3.37
2022-12-01T21:39:23.008Z,3.37
2022-12-01T21:41:51.769Z,3.32
2022-12-01T21:44:20.234Z,3.32
2022-12-01T21:46:47.911Z,3.32
2022-12-01T21:49:30.773Z,3.23
2022-12-01T21:51:58.445Z,3.23
2022-12-01T21:54:24.855Z,3.22
2022-12-01T21:56:57.090Z,3.19
2022-12-01T21:59:24.471Z,3.16
2022-12-01T22:01:54.279Z,3.17
2022-12-01T22:04:28.791Z,3.16
2022-12-01T22:06:57.038Z,3.11
2022-12-01T22:09:26.429Z,3.18
2022-12-01T22:12:28.696Z,3.16
2022-12-01T22:15:02.067Z,3.11
2022-12-01T22:17:29.780Z,3.21
2022-12-01T22:19:59.800Z,3.15
2022-12-01T22:22:30.491Z,3.19
2022-12-01T22:25:01.796Z,3.23
2022-12-01T22:27:29.782Z,3.17
2022-12-01T22:30:05.331Z,3.20
2022-12-01T22:32:34.724Z,3.21
2022-12-01T22:35:23.649Z,3.19
2022-12-01T22:37:54.676Z,3.18
2022-12-01T22:40:38.062Z,3.36
2022-12-01T22:43:16.266Z,3.29
2022-12-01T22:46:17.899Z,3.30
2022-12-01T22:48:58.799Z,3.21
2022-12-01T22:51:26.725Z,3.24
2022-12-01T22:54:16.976Z,3.33
2022-12-01T22:56:46.459Z,3.29
2022-12-01T22:59:18.635Z,3.19
2022-12-01T23:01:48.141Z,3.31
2022-12-01T23:04:26.659Z,3.28
2022-12-01T23:06:58.283Z,3.29
2022-12-01T23:09:44.270Z,3.31
2022-12-01T23:12:10.625Z,3.33
2022-12-01T23:14:43.615Z,3.31
2022-12-01T23:17:24.349Z,3.37
2022-12-01T23:19:52.788Z,3.31
2022-12-01T23:22:19.969Z,3.36
2022-12-01T23:24:46.414Z,3.36
2022-12-01T23:27:16.076Z,3.35
2022-12-01T23:29:42.531Z,3.37
2022-12-01T23:32:10.543Z,3.21
2022-12-01T23:34:37.072Z,3.28
2022-12-01T23:37:03.479Z,3.30
2022-12-01T23:39:35.044Z,3.20
2022-12-01T23:42:02.618Z,3.19
2022-12-01T23:44:45.425Z,3.16
2022-12-01T23:47:24.815Z,3.20
2022-12-01T23:50:03.702Z,3.26
2022-12-01T23:52:34.098Z,3.25
2022-12-01T23:55:01.162Z,3.20
2022-12-01T23:57:27.878Z,3.26
